createdAt,value
2023-05-09T00:00:46.932Z,10.70
2023-05-09T00:03:14.435Z,10.60
2023-05-09T00:05:41.762Z,10.60
2023-05-09T00:08:08.513Z,10.70
2023-05-09T00:10:35.474Z,10.70
2023-05-09T00:13:02.155Z,10.60
2023-05-09T00:15:29.317Z,10.60
2023-05-09T00:17:56.029Z,10.70
2023-05-09T00:20:22.862Z,10.80
2023-05-09T00:22:49.518Z,10.80
2023-05-09T00:25:16.546Z,10.80
2023-05-09T00:27:43.434Z,10.70
2023-05-09T00:30:10.381Z,10.70
2023-05-09T00:32:37.139Z,10.70
2023-05-09T00:35:04.306Z,10.60
2023-05-09T00:37:31.464Z,10.60
2023-05-09T00:39:58.515Z,10.60
2023-05-09T00:42:25.261Z,10.50
2023-05-09T00:44:52.298Z,10.50
2023-05-09T00:47:19.256Z,10.50
2023-05-09T00:49:46.060Z,10.50
2023-05-09T00:52:12.809Z,10.50
2023-05-09T00:54:39.757Z,10.50
2023-05-09T00:57:07.056Z,10.50
2023-05-09T00:59:33.718Z,10.50
2023-05-09T01:02:00.795Z,10.60
2023-05-09T01:04:27.966Z,10.60
2023-05-09T01:07:31.099Z,10.60
2023-05-09T01:10:02.494Z,10.60
2023-05-09T01:12:38.282Z,10.80
2023-05-09T01:15:32.767Z,10.70
2023-05-09T01:18:13.512Z,10.80
2023-05-09T01:20:47.631Z,10.60
2023-05-09T01:23:44.433Z,10.60
2023-05-09T01:26:42.241Z,10.60
2023-05-09T01:29:40.746Z,10.70
2023-05-09T01:32:19.906Z,10.70
2023-05-09T01:34:49.548Z,10.70
2023-05-09T01:37:19.295Z,10.70
2023-05-09T01:39:49.937Z,10.70
2023-05-09T01:42:20.207Z,10.70
2023-05-09T01:44:47.543Z,10.70
2023-05-09T01:47:16.547Z,10.60
2023-05-09T01:49:44.609Z,10.50
2023-05-09T01:52:16.009Z,10.60
2023-05-09T01:54:44.566Z,10.50
2023-05-09T01:57:13.537Z,10.50
2023-05-09T01:59:44.603Z,10.40
2023-05-09T02:02:12.147Z,10.50
2023-05-09T02:04:40.995Z,10.50
2023-05-09T02:07:09.353Z,10.40
2023-05-09T02:09:36.128Z,10.30
2023-05-09T02:12:04.553Z,10.00
2023-05-09T02:14:31.926Z,9.90
2023-05-09T02:17:06.080Z,9.80
2023-05-09T02:19:36.198Z,9.80
2023-05-09T02:22:04.765Z,9.70
2023-05-09T02:24:33.665Z,9.60
2023-05-09T02:27:02.660Z,9.60
2023-05-09T02:29:40.003Z,9.60
2023-05-09T02:32:15.423Z,9.70
2023-05-09T02:34:42.940Z,9.70
2023-05-09T02:37:10.854Z,9.70
2023-05-09T02:39:37.768Z,9.70
2023-05-09T02:42:11.342Z,9.60
2023-05-09T02:44:39.105Z,9.70
2023-05-09T02:47:07.160Z,9.70
2023-05-09T02:49:34.483Z,9.70
2023-05-09T02:52:02.980Z,9.70
2023-05-09T02:54:29.771Z,9.70
2023-05-09T02:56:56.486Z,9.80
2023-05-09T02:59:23.238Z,9.80
2023-05-09T03:01:50.219Z,9.90
2023-05-09T03:04:18.016Z,10.00
2023-05-09T03:06:45.028Z,10.00
2023-05-09T03:09:12.475Z,10.10
2023-05-09T03:11:39.416Z,10.20
2023-05-09T03:14:08.284Z,10.20
2023-05-09T03:16:35.314Z,10.10
2023-05-09T03:19:02.556Z,9.90
2023-05-09T03:21:29.539Z,9.70
2023-05-09T03:23:56.253Z,9.40
2023-05-09T03:26:23.456Z,9.30
2023-05-09T03:28:50.207Z,9.30
2023-05-09T03:31:16.950Z,9.30
2023-05-09T03:33:43.691Z,9.50
2023-05-09T03:36:10.576Z,9.60
2023-05-09T03:38:39.790Z,9.50
2023-05-09T03:41:06.571Z,9.60
2023-05-09T03:43:33.344Z,9.60
2023-05-09T03:46:00.029Z,9.70
2023-05-09T03:48:27.111Z,9.60
2023-05-09T03:50:53.903Z,9.50
2023-05-09T03:53:22.062Z,9.40
2023-05-09T03:55:50.282Z,9.30
2023-05-09T03:58:19.268Z,9.30
2023-05-09T04:00:46.130Z,9.40
2023-05-09T04:03:19.382Z,9.40
2023-05-09T04:05:47.668Z,9.40
2023-05-09T04:08:24.690Z,9.50
2023-05-09T04:10:52.349Z,9.50
2023-05-09T04:13:19.178Z,9.50
2023-05-09T04:15:46.438Z,9.60
2023-05-09T04:18:13.381Z,9.70
2023-05-09T04:20:40.057Z,9.80
2023-05-09T04:23:06.811Z,9.80
2023-05-09T04:25:35.431Z,9.90
2023-05-09T04:28:02.622Z,9.90
2023-05-09T04:30:29.571Z,9.90
2023-05-09T04:32:57.710Z,9.90
2023-05-09T04:35:25.347Z,10.00
2023-05-09T04:37:53.165Z,9.90
2023-05-09T04:40:19.936Z,9.90
2023-05-09T04:42:57.204Z,9.90
2023-05-09T04:45:26.754Z,10.00
2023-05-09T04:47:54.505Z,10.10
2023-05-09T04:50:21.277Z,10.10
2023-05-09T04:52:48.101Z,10.20
2023-05-09T04:55:15.428Z,10.20
2023-05-09T04:57:45.781Z,10.30
2023-05-09T05:00:13.076Z,10.40
2023-05-09T05:02:40.598Z,10.40
2023-05-09T05:05:12.143Z,10.40
2023-05-09T05:07:41.753Z,10.50
2023-05-09T05:10:10.646Z,10.70
2023-05-09T05:12:39.680Z,10.80
2023-05-09T05:15:09.773Z,11.00
2023-05-09T05:17:37.081Z,11.20
2023-05-09T05:20:06.654Z,11.40
2023-05-09T05:22:33.700Z,11.60
2023-05-09T05:25:00.944Z,11.70
2023-05-09T05:27:27.654Z,11.90
2023-05-09T05:29:54.498Z,12.10
2023-05-09T05:32:21.198Z,12.30
2023-05-09T05:34:48.119Z,12.50
2023-05-09T05:37:15.241Z,12.60
2023-05-09T05:39:42.384Z,12.80
2023-05-09T05:42:09.286Z,12.80
2023-05-09T05:44:36.582Z,12.90
2023-05-09T05:47:03.694Z,12.90
2023-05-09T05:49:31.002Z,13.00
2023-05-09T05:51:58.095Z,13.10
2023-05-09T05:54:25.877Z,13.30
2023-05-09T05:56:54.179Z,13.30
2023-05-09T05:59:20.892Z,13.50
2023-05-09T06:01:48.280Z,13.70
2023-05-09T06:04:15.427Z,13.80
2023-05-09T06:06:42.260Z,13.80
2023-05-09T06:09:09.024Z,13.90
2023-05-09T06:11:35.784Z,14.00
2023-05-09T06:14:03.109Z,14.10
2023-05-09T06:16:29.927Z,14.30
2023-05-09T06:18:56.735Z,14.40
2023-05-09T06:21:23.663Z,14.60
2023-05-09T06:24:04.350Z,14.80
2023-05-09T06:26:35.382Z,14.90
2023-05-09T06:29:02.404Z,15.10
2023-05-09T06:31:29.717Z,14.80
2023-05-09T06:33:56.419Z,14.90
2023-05-09T06:36:23.160Z,14.80
2023-05-09T06:38:49.808Z,15.00
2023-05-09T06:41:16.458Z,15.30
2023-05-09T06:43:43.111Z,15.40
2023-05-09T06:46:09.859Z,15.40
2023-05-09T06:48:36.553Z,15.40
2023-05-09T06:51:03.265Z,15.30
2023-05-09T06:53:29.922Z,15.20
2023-05-09T06:55:56.662Z,15.20
2023-05-09T06:58:23.519Z,15.20
2023-05-09T07:00:51.269Z,15.30
2023-05-09T07:03:17.993Z,15.30
2023-05-09T07:05:44.659Z,15.30
2023-05-09T07:08:11.374Z,15.40
2023-05-09T07:10:38.784Z,15.50
2023-05-09T07:13:06.132Z,15.30
2023-05-09T07:15:40.479Z,15.30
2023-05-09T07:18:09.264Z,15.50
2023-05-09T07:20:36.062Z,15.40
2023-05-09T07:23:05.905Z,15.50
2023-05-09T07:25:33.803Z,15.60
2023-05-09T07:28:00.968Z,15.60
2023-05-09T07:30:27.751Z,15.90
2023-05-09T07:32:54.451Z,16.00
2023-05-09T07:35:21.507Z,16.10
2023-05-09T07:37:48.312Z,15.80
2023-05-09T07:40:15.483Z,15.30
2023-05-09T07:42:46.137Z,15.30
2023-05-09T07:45:13.027Z,15.40
2023-05-09T07:47:39.975Z,15.40
2023-05-09T07:50:07.328Z,15.00
2023-05-09T07:52:34.063Z,15.00
2023-05-09T07:55:00.843Z,14.90
2023-05-09T07:57:27.569Z,15.20
2023-05-09T07:59:54.411Z,15.10
2023-05-09T08:02:21.157Z,14.90
2023-05-09T08:04:49.072Z,15.00
2023-05-09T08:07:16.248Z,15.50
2023-05-09T08:09:42.962Z,16.00
2023-05-09T08:12:09.666Z,16.30
2023-05-09T08:14:36.429Z,16.60
2023-05-09T08:17:03.130Z,17.10
2023-05-09T08:19:29.871Z,17.50
2023-05-09T08:21:56.593Z,17.70
2023-05-09T08:24:23.313Z,17.50
2023-05-09T08:26:50.027Z,17.50
2023-05-09T08:29:17.698Z,17.70
2023-05-09T08:31:44.520Z,17.90
2023-05-09T08:34:11.299Z,18.20
2023-05-09T08:36:37.993Z,18.30
2023-05-09T08:39:04.696Z,18.40
2023-05-09T08:41:35.891Z,18.40
2023-05-09T08:44:03.325Z,18.40
2023-05-09T08:46:34.019Z,18.30
2023-05-09T08:49:00.973Z,18.00
2023-05-09T08:51:30.109Z,17.70
2023-05-09T08:53:57.067Z,17.80
2023-05-09T08:56:24.165Z,17.90
2023-05-09T08:58:51.645Z,18.10
2023-05-09T09:01:19.388Z,18.40
2023-05-09T09:03:49.434Z,18.70
2023-05-09T09:06:16.850Z,18.90
2023-05-09T09:08:45.646Z,18.90
2023-05-09T09:11:14.835Z,19.00
2023-05-09T09:13:43.806Z,18.80
2023-05-09T09:16:21.386Z,18.70
2023-05-09T09:18:49.513Z,18.60
2023-05-09T09:21:17.122Z,18.30
2023-05-09T09:23:44.397Z,18.10
2023-05-09T09:26:11.112Z,17.90
2023-05-09T09:28:37.920Z,17.50
2023-05-09T09:31:23.310Z,17.20
2023-05-09T09:33:51.026Z,17.10
2023-05-09T09:36:28.183Z,16.90
2023-05-09T09:39:04.696Z,16.80
2023-05-09T09:41:36.364Z,16.80
2023-05-09T09:44:12.533Z,16.90
2023-05-09T09:46:46.256Z,16.80
2023-05-09T09:49:13.759Z,16.70
2023-05-09T09:51:41.181Z,16.60
2023-05-09T09:54:09.370Z,16.60
2023-05-09T09:56:50.118Z,16.60
2023-05-09T09:59:19.278Z,16.60
2023-05-09T10:01:59.487Z,16.60
2023-05-09T10:04:28.825Z,16.70
2023-05-09T10:07:06.456Z,16.60
2023-05-09T10:09:35.119Z,16.50
2023-05-09T10:12:07.002Z,16.60
2023-05-09T10:14:41.317Z,16.40
2023-05-09T10:17:11.282Z,16.50
2023-05-09T10:19:42.390Z,16.40
2023-05-09T10:22:11.079Z,16.50
2023-05-09T10:24:47.945Z,16.40
2023-05-09T10:27:17.350Z,16.40
2023-05-09T10:29:51.730Z,16.50
2023-05-09T10:32:29.244Z,16.50
2023-05-09T10:35:04.494Z,16.70
2023-05-09T10:37:33.344Z,16.90
2023-05-09T10:40:05.011Z,17.00
2023-05-09T10:42:32.128Z,17.10
2023-05-09T10:44:58.809Z,17.00
2023-05-09T10:47:29.640Z,17.10
2023-05-09T10:49:56.646Z,17.30
2023-05-09T10:52:23.422Z,17.40
2023-05-09T10:55:04.581Z,17.30
2023-05-09T10:57:32.410Z,17.50
2023-05-09T11:00:00.414Z,17.90
2023-05-09T11:02:30.893Z,17.90
2023-05-09T11:05:14.569Z,18.00
2023-05-09T11:07:41.435Z,18.10
2023-05-09T11:10:08.278Z,18.20
2023-05-09T11:12:35.007Z,18.30
2023-05-09T11:15:06.625Z,18.30
2023-05-09T11:17:38.435Z,18.40
2023-05-09T11:20:06.646Z,18.40
2023-05-09T11:22:41.992Z,18.60
2023-05-09T11:25:13.808Z,18.80
2023-05-09T11:27:45.110Z,18.90
2023-05-09T11:30:14.567Z,19.00
2023-05-09T11:32:44.766Z,19.00
2023-05-09T11:35:20.273Z,19.10
2023-05-09T11:37:49.392Z,19.20
2023-05-09T11:40:18.425Z,19.20
2023-05-09T11:42:54.694Z,19.40
2023-05-09T11:45:25.244Z,19.50
2023-05-09T11:47:52.755Z,19.70
2023-05-09T11:50:20.274Z,19.90
2023-05-09T11:52:48.576Z,20.00
2023-05-09T11:55:18.824Z,20.20
2023-05-09T11:57:47.031Z,20.50
2023-05-09T12:00:19.605Z,20.70
2023-05-09T12:02:47.590Z,20.80
2023-05-09T12:05:16.600Z,20.80
2023-05-09T12:07:43.618Z,20.40
2023-05-09T12:10:12.796Z,20.50
2023-05-09T12:12:57.673Z,20.60
2023-05-09T12:15:24.773Z,20.60
2023-05-09T12:18:05.218Z,20.50
2023-05-09T12:20:50.149Z,20.30
2023-05-09T12:23:18.212Z,20.20
2023-05-09T12:25:56.008Z,20.40
2023-05-09T12:28:26.710Z,20.50
2023-05-09T12:30:54.346Z,20.60
2023-05-09T12:33:21.636Z,20.60
2023-05-09T12:36:00.496Z,20.80
2023-05-09T12:38:27.299Z,20.90
2023-05-09T12:41:21.808Z,21.20
2023-05-09T12:43:57.063Z,21.40
2023-05-09T12:46:24.166Z,21.70
2023-05-09T12:48:51.695Z,21.90
2023-05-09T12:51:20.518Z,22.20
2023-05-09T12:53:47.720Z,22.20
2023-05-09T12:56:19.286Z,22.30
2023-05-09T12:58:55.619Z,22.30
2023-05-09T13:01:29.266Z,22.50
2023-05-09T13:04:04.039Z,22.50
2023-05-09T13:06:31.113Z,22.40
2023-05-09T13:09:02.786Z,22.10
2023-05-09T13:11:29.927Z,21.80
2023-05-09T13:13:57.179Z,21.60
2023-05-09T13:16:24.055Z,21.40
2023-05-09T13:18:50.823Z,21.30
2023-05-09T13:21:17.554Z,21.10
2023-05-09T13:23:45.749Z,21.20
2023-05-09T13:26:12.602Z,21.20
2023-05-09T13:28:39.329Z,21.20
2023-05-09T13:31:06.904Z,21.30
2023-05-09T13:33:33.936Z,21.50
2023-05-09T13:36:00.736Z,21.70
2023-05-09T13:38:30.681Z,21.80
2023-05-09T13:40:57.621Z,22.00
2023-05-09T13:43:24.340Z,22.00
2023-05-09T13:45:51.086Z,21.90
2023-05-09T13:48:17.817Z,21.80
2023-05-09T13:50:44.578Z,21.90
2023-05-09T13:53:11.276Z,21.80
2023-05-09T13:55:38.053Z,21.70
2023-05-09T13:58:04.752Z,21.90
2023-05-09T14:00:31.419Z,22.30
2023-05-09T14:02:58.136Z,22.50
2023-05-09T14:05:24.925Z,22.70
2023-05-09T14:07:51.638Z,22.90
2023-05-09T14:10:18.578Z,23.30
2023-05-09T14:12:47.069Z,23.50
2023-05-09T14:15:14.020Z,23.90
2023-05-09T14:17:40.886Z,24.10
2023-05-09T14:20:08.238Z,24.30
2023-05-09T14:22:35.112Z,24.20
2023-05-09T14:25:02.255Z,24.20
2023-05-09T14:27:28.962Z,23.70
2023-05-09T14:29:56.160Z,23.50
2023-05-09T14:32:22.843Z,23.60
2023-05-09T14:34:49.802Z,23.50
2023-05-09T14:37:16.813Z,23.60
2023-05-09T14:39:45.034Z,23.40
2023-05-09T14:42:13.986Z,23.50
2023-05-09T14:44:41.779Z,23.20
2023-05-09T14:47:09.638Z,23.20
2023-05-09T14:49:37.794Z,23.20
2023-05-09T14:52:04.601Z,22.80
2023-05-09T14:54:31.597Z,22.50
2023-05-09T14:56:59.448Z,22.50
2023-05-09T14:59:26.200Z,22.50
2023-05-09T15:01:52.927Z,22.40
2023-05-09T15:04:19.703Z,22.50
2023-05-09T15:06:46.424Z,22.40
2023-05-09T15:09:13.811Z,22.40
2023-05-09T15:11:47.812Z,22.40
2023-05-09T15:14:16.282Z,22.30
2023-05-09T15:16:43.094Z,22.30
2023-05-09T15:19:09.913Z,22.20
2023-05-09T15:21:36.723Z,22.10
2023-05-09T15:24:04.178Z,22.20
2023-05-09T15:26:31.020Z,22.40
2023-05-09T15:28:57.724Z,22.50
2023-05-09T15:31:25.476Z,22.50
2023-05-09T15:33:53.332Z,22.60
2023-05-09T15:36:20.150Z,22.50
2023-05-09T15:38:49.369Z,22.50
2023-05-09T15:41:16.691Z,22.50
2023-05-09T15:43:43.544Z,22.50
2023-05-09T15:46:10.445Z,22.50
2023-05-09T15:48:37.342Z,22.60
2023-05-09T15:51:04.297Z,22.70
2023-05-09T15:53:31.274Z,23.10
2023-05-09T15:55:58.082Z,23.50
2023-05-09T15:58:25.185Z,23.70
2023-05-09T16:00:51.978Z,23.70
2023-05-09T16:03:19.634Z,23.40
2023-05-09T16:05:46.616Z,23.20
2023-05-09T16:08:13.326Z,23.10
2023-05-09T16:10:40.708Z,23.10
2023-05-09T16:13:07.962Z,23.00
2023-05-09T16:15:35.094Z,22.90
2023-05-09T16:18:01.815Z,22.40
2023-05-09T16:20:28.521Z,22.10
2023-05-09T16:22:55.204Z,21.80
2023-05-09T16:25:21.978Z,21.50
2023-05-09T16:27:48.699Z,21.30
2023-05-09T16:30:16.209Z,21.10
2023-05-09T16:32:43.352Z,20.90
2023-05-09T16:35:10.729Z,20.70
2023-05-09T16:37:37.652Z,20.60
2023-05-09T16:40:04.907Z,20.60
2023-05-09T16:42:31.787Z,20.50
2023-05-09T16:44:58.479Z,20.40
2023-05-09T16:47:25.517Z,20.40
2023-05-09T16:49:52.235Z,20.40
2023-05-09T16:52:19.003Z,20.30
2023-05-09T16:54:45.778Z,20.20
2023-05-09T16:57:13.167Z,20.10
2023-05-09T16:59:40.230Z,19.90
2023-05-09T17:02:07.643Z,19.90
2023-05-09T17:04:36.658Z,19.70
2023-05-09T17:07:04.328Z,19.60
2023-05-09T17:09:32.019Z,19.50
2023-05-09T17:11:58.943Z,19.40
2023-05-09T17:14:26.680Z,19.30
2023-05-09T17:16:53.828Z,19.20
2023-05-09T17:19:23.227Z,19.10
2023-05-09T17:21:50.112Z,19.10
2023-05-09T17:24:17.224Z,18.90
2023-05-09T17:26:44.083Z,18.70
2023-05-09T17:29:10.818Z,18.50
2023-05-09T17:31:37.608Z,18.40
2023-05-09T17:34:05.503Z,18.20
2023-05-09T17:36:33.581Z,18.10
2023-05-09T17:39:00.769Z,18.10
2023-05-09T17:41:27.659Z,18.00
2023-05-09T17:43:57.053Z,17.90
2023-05-09T17:46:23.926Z,17.90
2023-05-09T17:48:50.784Z,17.90
2023-05-09T17:51:17.545Z,17.80
2023-05-09T17:53:44.235Z,17.80
2023-05-09T17:56:10.908Z,17.80
2023-05-09T17:58:37.583Z,17.80
2023-05-09T18:01:05.391Z,17.80
2023-05-09T18:03:32.613Z,17.80
2023-05-09T18:06:02.261Z,17.80
2023-05-09T18:08:29.778Z,17.80
2023-05-09T18:10:57.648Z,17.70
2023-05-09T18:13:24.561Z,17.60
2023-05-09T18:15:51.529Z,17.40
2023-05-09T18:18:18.460Z,17.10
2023-05-09T18:20:47.032Z,16.90
2023-05-09T18:23:14.902Z,16.80
2023-05-09T18:25:41.922Z,16.80
2023-05-09T18:28:09.305Z,16.80
2023-05-09T18:30:36.184Z,16.70
2023-05-09T18:33:03.099Z,16.40
2023-05-09T18:35:29.940Z,16.30
2023-05-09T18:37:56.793Z,16.20
2023-05-09T18:40:23.540Z,16.00
2023-05-09T18:42:50.300Z,15.70
2023-05-09T18:45:16.959Z,15.40
2023-05-09T18:47:43.673Z,14.80
2023-05-09T18:50:11.116Z,14.10
2023-05-09T18:52:38.416Z,13.80
2023-05-09T18:55:05.993Z,13.60
2023-05-09T18:57:33.800Z,13.40
2023-05-09T19:00:00.693Z,13.30
2023-05-09T19:02:27.430Z,13.10
2023-05-09T19:04:54.146Z,12.90
2023-05-09T19:07:20.860Z,12.90
2023-05-09T19:09:47.667Z,12.90
2023-05-09T19:12:16.328Z,12.90
2023-05-09T19:14:43.466Z,12.90
2023-05-09T19:17:10.803Z,12.90
2023-05-09T19:19:37.644Z,12.90
2023-05-09T19:22:04.830Z,12.90
2023-05-09T19:24:32.806Z,12.90
2023-05-09T19:26:59.557Z,12.90
2023-05-09T19:29:26.279Z,12.90
2023-05-09T19:31:53.052Z,12.90
2023-05-09T19:34:19.802Z,12.70
2023-05-09T19:36:46.497Z,12.60
2023-05-09T19:39:13.181Z,12.50
2023-05-09T19:41:40.047Z,12.50
2023-05-09T19:44:07.213Z,12.50
2023-05-09T19:46:35.256Z,12.60
2023-05-09T19:49:02.126Z,12.60
2023-05-09T19:51:29.519Z,12.40
2023-05-09T19:53:56.209Z,12.30
2023-05-09T19:56:23.188Z,12.20
2023-05-09T19:58:50.281Z,12.20
2023-05-09T20:01:18.915Z,12.20
2023-05-09T20:03:47.004Z,12.20
2023-05-09T20:06:13.965Z,12.20
2023-05-09T20:08:40.700Z,12.20
2023-05-09T20:11:07.818Z,12.20
2023-05-09T20:13:34.598Z,12.20
2023-05-09T20:16:02.803Z,12.10
2023-05-09T20:18:33.140Z,12.10
2023-05-09T20:21:01.225Z,12.00
2023-05-09T20:23:28.890Z,12.00
2023-05-09T20:25:56.111Z,12.00
2023-05-09T20:28:22.975Z,12.00
2023-05-09T20:30:50.057Z,12.00
2023-05-09T20:33:16.835Z,12.00
2023-05-09T20:35:43.948Z,12.00
2023-05-09T20:38:11.621Z,12.00
2023-05-09T20:40:38.630Z,12.00
2023-05-09T20:43:05.467Z,12.00
2023-05-09T20:45:32.477Z,12.00
2023-05-09T20:48:00.245Z,11.90
2023-05-09T20:50:27.022Z,11.90
2023-05-09T20:52:54.118Z,11.90
2023-05-09T20:55:21.008Z,11.80
2023-05-09T20:57:48.079Z,11.90
2023-05-09T21:00:15.184Z,11.90
2023-05-09T21:02:42.370Z,11.90
2023-05-09T21:05:09.366Z,11.90
2023-05-09T21:07:36.072Z,11.80
2023-05-09T21:10:02.817Z,11.90
2023-05-09T21:12:30.521Z,11.90
2023-05-09T21:14:57.698Z,12.00
2023-05-09T21:17:24.715Z,12.10
2023-05-09T21:19:52.275Z,12.00
2023-05-09T21:22:19.017Z,12.00
2023-05-09T21:24:45.898Z,12.10
2023-05-09T21:27:12.702Z,12.10
2023-05-09T21:29:39.370Z,12.10
2023-05-09T21:32:06.210Z,12.10
2023-05-09T21:34:32.894Z,12.00
2023-05-09T21:36:59.645Z,12.00
2023-05-09T21:39:26.301Z,11.90
2023-05-09T21:41:52.965Z,11.90
2023-05-09T21:44:19.684Z,11.90
2023-05-09T21:46:46.633Z,11.90
2023-05-09T21:49:16.575Z,11.90
2023-05-09T21:51:43.546Z,11.80
2023-05-09T21:54:10.912Z,11.80
2023-05-09T21:56:37.845Z,11.90
2023-05-09T21:59:04.609Z,11.80
2023-05-09T22:01:31.392Z,11.90
2023-05-09T22:03:58.700Z,11.90
2023-05-09T22:06:25.821Z,11.80
2023-05-09T22:08:52.521Z,11.80
2023-05-09T22:11:19.308Z,11.80
2023-05-09T22:13:45.992Z,11.80
2023-05-09T22:16:13.295Z,11.90
2023-05-09T22:18:40.057Z,11.90
2023-05-09T22:21:06.986Z,11.80
2023-05-09T22:23:33.666Z,11.80
2023-05-09T22:26:00.527Z,11.80
2023-05-09T22:28:28.575Z,11.80
2023-05-09T22:30:55.241Z,11.80
2023-05-09T22:33:22.009Z,11.70
2023-05-09T22:35:48.655Z,11.90
2023-05-09T22:38:15.327Z,11.90
2023-05-09T22:40:42.091Z,11.90
2023-05-09T22:43:10.492Z,12.00
2023-05-09T22:45:37.657Z,12.00
2023-05-09T22:48:04.947Z,11.90
2023-05-09T22:50:31.741Z,11.90
2023-05-09T22:52:58.583Z,11.80
2023-05-09T22:55:25.275Z,11.80
2023-05-09T22:57:51.970Z,11.60
2023-05-09T23:00:19.057Z,11.70
2023-05-09T23:02:45.950Z,11.70
2023-05-09T23:05:12.826Z,11.80
2023-05-09T23:07:39.502Z,11.80
2023-05-09T23:10:07.130Z,11.70
2023-05-09T23:12:33.946Z,11.70
2023-05-09T23:15:00.646Z,11.70
2023-05-09T23:17:27.609Z,11.70
2023-05-09T23:19:54.320Z,11.60
2023-05-09T23:22:20.968Z,11.60
2023-05-09T23:24:47.759Z,11.70
2023-05-09T23:27:14.445Z,11.70
2023-05-09T23:29:41.103Z,11.70
2023-05-09T23:32:07.888Z,11.70
2023-05-09T23:34:36.520Z,11.70
2023-05-09T23:37:07.783Z,11.50
2023-05-09T23:39:35.185Z,11.60
2023-05-09T23:42:01.905Z,11.50
2023-05-09T23:44:28.558Z,11.60
2023-05-09T23:46:55.378Z,11.50
2023-05-09T23:49:22.213Z,11.50
2023-05-09T23:51:48.860Z,11.50
2023-05-09T23:54:16.490Z,11.40
2023-05-09T23:56:43.483Z,11.40
2023-05-09T23:59:10.359Z,11.30
